Time;durP1;ratioP1;P1;durP2;ratioP2;P2;SDS_P1;SDS_P2;PMS_P1;PMS_P2;Temp;Humidity;BMP_temperature;BMP_pressure;BME280_temperature;BME280_humidity;BME280_pressure;Samples;Min_cycle;Max_cycle;Signal;HPM_P1;HPM_P2
2022/07/08 00:00:42;;;;;;;17.73;2.78;;;;;;;;;;5049127;28;20029;-71
2022/07/08 00:03:08;;;;;;;16.38;2.60;;;;;;;;;;5049335;28;20147;-71
2022/07/08 00:05:34;;;;;;;14.98;2.60;;;;;;;;;;5046128;28;20021;-73
2022/07/08 00:08:00;;;;;;;14.45;2.60;;;;;;;;;;5050846;28;20025;-70
2022/07/08 00:10:26;;;;;;;12.88;2.85;;;;;;;;;;5046233;28;20029;-71
2022/07/08 00:12:53;;;;;;;13.48;3.30;;;;;;;;;;5046705;28;20047;-71
2022/07/08 00:15:21;;;;;;;14.65;2.50;;;;;;;;;;5049808;28;20029;-71
2022/07/08 00:17:47;;;;;;;12.10;2.40;;;;;;;;;;5052041;28;20090;-70
2022/07/08 00:20:13;;;;;;;13.95;3.08;;;;;;;;;;5039232;28;20056;-70
2022/07/08 00:22:39;;;;;;;14.60;2.60;;;;;;;;;;5040246;28;20399;-70
2022/07/08 00:25:05;;;;;;;10.98;2.53;;;;;;;;;;5048669;28;20033;-71
2022/07/08 00:27:31;;;;;;;11.20;2.53;;;;;;;;;;5050958;28;20055;-71
2022/07/08 00:29:57;;;;;;;18.40;2.53;;;;;;;;;;5041199;28;20029;-71
2022/07/08 00:32:23;;;;;;;11.00;2.70;;;;;;;;;;5036185;28;20063;-71
2022/07/08 00:34:50;;;;;;;15.90;3.85;;;;;;;;;;5047937;28;20029;-71
2022/07/08 00:37:16;;;;;;;17.38;3.50;;;;;;;;;;5050120;28;20053;-71
2022/07/08 00:39:42;;;;;;;21.42;4.30;;;;;;;;;;5047434;28;20040;-71
2022/07/08 00:42:08;;;;;;;20.80;3.50;;;;;;;;;;5037136;28;20033;-71
2022/07/08 00:44:34;;;;;;;18.35;3.40;;;;;;;;;;5047388;28;20025;-71
2022/07/08 00:47:00;;;;;;;14.10;3.53;;;;;;;;;;5049740;28;20033;-71
2022/07/08 00:49:26;;;;;;;18.20;3.40;;;;;;;;;;5047531;28;20080;-71
2022/07/08 00:51:52;;;;;;;16.73;4.70;;;;;;;;;;5045383;28;20029;-71
2022/07/08 00:54:20;;;;;;;16.92;3.63;;;;;;;;;;5048250;28;20029;-72
2022/07/08 00:56:46;;;;;;;16.20;4.05;;;;;;;;;;5049765;28;20017;-71
2022/07/08 00:59:12;;;;;;;19.05;3.85;;;;;;;;;;5047856;28;20048;-71
2022/07/08 01:01:39;;;;;;;15.80;4.05;;;;;;;;;;5043192;28;20170;-71
2022/07/08 01:04:05;;;;;;;15.20;3.35;;;;;;;;;;5036893;28;20517;-71
2022/07/08 01:06:31;;;;;;;19.75;4.10;;;;;;;;;;5049486;28;20210;-70
2022/07/08 01:08:57;;;;;;;15.77;3.90;;;;;;;;;;5047663;28;20025;-69
2022/07/08 01:11:24;;;;;;;15.20;3.47;;;;;;;;;;5041529;28;20048;-71
2022/07/08 01:13:51;;;;;;;10.23;3.00;;;;;;;;;;5043516;28;20025;-71
2022/07/08 01:16:17;;;;;;;14.18;3.58;;;;;;;;;;5045328;28;20029;-71
2022/07/08 01:18:43;;;;;;;15.25;3.40;;;;;;;;;;5047450;28;20083;-70
2022/07/08 01:21:09;;;;;;;19.65;3.42;;;;;;;;;;5045998;28;20040;-70
2022/07/08 01:23:36;;;;;;;16.42;3.65;;;;;;;;;;5045242;28;20222;-76
2022/07/08 01:26:07;;;;;;;13.50;4.25;;;;;;;;;;5045114;28;20064;-69
2022/07/08 01:28:32;;;;;;;;;;;;;;;;;;5041317;28;20021;-70
2022/07/08 01:30:58;;;;;;;16.48;3.97;;;;;;;;;;5046593;28;19916;-71
2022/07/08 01:33:25;;;;;;;15.05;3.83;;;;;;;;;;5043064;28;20075;-70
2022/07/08 01:35:51;;;;;;;17.17;3.80;;;;;;;;;;5048757;28;20044;-71
2022/07/08 01:38:17;;;;;;;16.75;4.32;;;;;;;;;;5049415;28;20116;-70
2022/07/08 01:40:43;;;;;;;17.48;4.20;;;;;;;;;;5038219;28;20120;-70
2022/07/08 01:43:09;;;;;;;21.08;4.88;;;;;;;;;;5042777;28;20036;-71
2022/07/08 01:45:35;;;;;;;20.70;4.18;;;;;;;;;;5039687;28;20072;-70
2022/07/08 01:48:01;;;;;;;15.30;5.07;;;;;;;;;;5036994;28;20039;-70
2022/07/08 01:50:27;;;;;;;21.48;3.92;;;;;;;;;;5043532;28;20458;-71
2022/07/08 01:52:53;;;;;;;24.33;4.57;;;;;;;;;;5043668;28;20479;-71
2022/07/08 01:55:19;;;;;;;19.05;4.47;;;;;;;;;;5045633;28;20116;-71
2022/07/08 01:57:45;;;;;;;15.40;3.78;;;;;;;;;;5048856;28;20036;-71
2022/07/08 02:00:11;;;;;;;21.95;4.95;;;;;;;;;;5041582;28;20037;-71
2022/07/08 02:02:38;;;;;;;14.95;4.40;;;;;;;;;;5044139;28;20025;-71
2022/07/08 02:05:04;;;;;;;16.30;4.97;;;;;;;;;;5046870;28;20040;-71
2022/07/08 02:07:31;;;;;;;15.68;4.50;;;;;;;;;;5046211;28;20071;-71
2022/07/08 02:09:57;;;;;;;22.83;5.72;;;;;;;;;;5037968;28;20029;-71
2022/07/08 02:12:24;;;;;;;20.55;4.85;;;;;;;;;;5042733;28;20057;-71
2022/07/08 02:15:04;;;;;;;19.73;5.22;;;;;;;;;;5048647;28;20817;-72
2022/07/08 02:17:31;;;;;;;14.23;5.40;;;;;;;;;;5049463;28;20087;-71
2022/07/08 02:19:58;;;;;;;26.33;6.80;;;;;;;;;;5046643;28;20333;-71
2022/07/08 02:22:24;;;;;;;18.35;5.90;;;;;;;;;;5041690;28;20111;-71
2022/07/08 02:24:51;;;;;;;13.63;5.90;;;;;;;;;;5038834;28;20068;-71
2022/07/08 02:27:17;;;;;;;22.55;6.65;;;;;;;;;;5042814;28;20120;-72
2022/07/08 02:29:43;;;;;;;22.95;6.57;;;;;;;;;;5043264;28;20033;-71
2022/07/08 02:32:09;;;;;;;19.17;6.10;;;;;;;;;;5048864;28;20032;-72
2022/07/08 02:34:35;;;;;;;20.27;6.82;;;;;;;;;;5050671;28;20029;-70
2022/07/08 02:37:02;;;;;;;17.63;6.05;;;;;;;;;;5052521;28;20470;-70
2022/07/08 02:39:28;;;;;;;20.38;6.57;;;;;;;;;;5044882;28;20025;-70
2022/07/08 02:41:54;;;;;;;16.27;5.50;;;;;;;;;;5043796;28;20033;-70
2022/07/08 02:44:20;;;;;;;14.35;5.90;;;;;;;;;;5037398;28;20029;-69
2022/07/08 02:46:46;;;;;;;23.80;6.15;;;;;;;;;;5047590;28;20523;-70
2022/07/08 02:49:12;;;;;;;20.35;5.88;;;;;;;;;;5051025;28;20041;-70
2022/07/08 02:51:40;;;;;;;22.23;6.85;;;;;;;;;;5050688;28;20613;-70
2022/07/08 02:54:07;;;;;;;22.52;6.45;;;;;;;;;;5050679;28;20044;-70
2022/07/08 02:56:33;;;;;;;17.75;5.53;;;;;;;;;;5045625;28;20376;-70
2022/07/08 02:59:00;;;;;;;19.20;5.95;;;;;;;;;;5051486;28;20029;-70
2022/07/08 03:01:26;;;;;;;16.58;6.03;;;;;;;;;;5044617;28;20043;-71
2022/07/08 03:03:52;;;;;;;22.58;7.43;;;;;;;;;;5051530;28;20498;-71
2022/07/08 03:06:18;;;;;;;16.75;6.97;;;;;;;;;;5050383;28;20498;-71
2022/07/08 03:08:44;;;;;;;26.13;8.18;;;;;;;;;;5051740;28;20106;-71
2022/07/08 03:11:10;;;;;;;15.90;6.78;;;;;;;;;;5049251;28;20032;-70
2022/07/08 03:13:36;;;;;;;20.45;6.72;;;;;;;;;;5034351;28;20029;-71
2022/07/08 03:16:03;;;;;;;19.30;6.97;;;;;;;;;;5048211;28;20040;-70
2022/07/08 03:18:31;;;;;;;29.58;8.48;;;;;;;;;;5053012;28;20032;-70
2022/07/08 03:20:57;;;;;;;27.73;8.63;;;;;;;;;;5051321;28;20025;-72
2022/07/08 03:23:23;;;;;;;26.33;7.72;;;;;;;;;;5030574;28;20038;-70
2022/07/08 03:25:49;;;;;;;20.60;7.28;;;;;;;;;;5042906;28;20043;-70
2022/07/08 03:28:15;;;;;;;23.33;9.30;;;;;;;;;;5034632;28;20072;-71
2022/07/08 03:30:41;;;;;;;20.48;8.20;;;;;;;;;;5045771;28;20052;-71
2022/07/08 03:33:07;;;;;;;21.17;8.02;;;;;;;;;;5050373;28;20123;-71
2022/07/08 03:35:33;;;;;;;33.67;9.20;;;;;;;;;;5049139;28;20490;-72
2022/07/08 03:37:59;;;;;;;23.92;8.35;;;;;;;;;;5043462;28;20185;-70
2022/07/08 03:43:10;;;;;;;35.33;8.75;;;;;;;;;;5050623;28;20454;-71
2022/07/08 03:45:36;;;;;;;22.17;7.40;;;;;;;;;;5039935;28;20033;-71
2022/07/08 03:48:03;;;;;;;26.10;7.95;;;;;;;;;;5041789;28;20116;-71
2022/07/08 03:50:29;;;;;;;27.38;8.07;;;;;;;;;;5047822;28;20045;-71
2022/07/08 03:52:55;;;;;;;22.40;7.72;;;;;;;;;;5049842;28;20037;-71
2022/07/08 03:55:25;;;;;;;21.45;7.57;;;;;;;;;;5035714;28;20123;-72
2022/07/08 03:57:52;;;;;;;20.77;7.40;;;;;;;;;;5041242;28;20028;-71
2022/07/08 04:00:19;;;;;;;22.77;7.07;;;;;;;;;;5065239;28;20074;-71
2022/07/08 04:02:45;;;;;;;26.30;7.97;;;;;;;;;;5050227;28;20112;-70
2022/07/08 04:05:12;;;;;;;24.77;8.27;;;;;;;;;;5047527;28;20495;-71
2022/07/08 04:07:38;;;;;;;14.40;6.95;;;;;;;;;;5042108;28;20496;-71
2022/07/08 04:10:04;;;;;;;15.95;6.80;;;;;;;;;;5047977;28;20406;-70
2022/07/08 04:12:31;;;;;;;26.15;9.43;;;;;;;;;;5041152;28;20129;-70
2022/07/08 04:14:57;;;;;;;23.30;6.75;;;;;;;;;;5048629;28;20041;-70
2022/07/08 04:17:23;;;;;;;16.85;6.70;;;;;;;;;;5051523;28;20029;-71
2022/07/08 04:19:50;;;;;;;22.30;6.93;;;;;;;;;;5049625;28;20586;-71
2022/07/08 04:22:16;;;;;;;18.35;7.75;;;;;;;;;;5034493;28;20128;-72
2022/07/08 04:24:42;;;;;;;21.70;6.97;;;;;;;;;;5048384;28;20060;-71
2022/07/08 04:27:08;;;;;;;27.48;7.50;;;;;;;;;;5041941;28;20025;-71
2022/07/08 04:29:34;;;;;;;22.30;7.40;;;;;;;;;;5035068;28;20486;-71
2022/07/08 04:32:00;;;;;;;23.88;7.05;;;;;;;;;;5046146;28;20125;-71
2022/07/08 04:34:26;;;;;;;33.25;6.68;;;;;;;;;;5048346;28;20572;-71
2022/07/08 04:36:52;;;;;;;17.17;4.70;;;;;;;;;;5042718;28;20095;-72
2022/07/08 04:39:18;;;;;;;19.35;4.18;;;;;;;;;;5049377;28;20040;-72
2022/07/08 04:41:44;;;;;;;17.52;3.83;;;;;;;;;;5049309;28;20108;-72
2022/07/08 04:44:10;;;;;;;14.70;3.85;;;;;;;;;;5049728;28;20033;-71
2022/07/08 04:46:36;;;;;;;14.68;3.20;;;;;;;;;;5039324;28;20021;-70
2022/07/08 04:49:03;;;;;;;12.82;3.25;;;;;;;;;;5047170;28;20091;-70
2022/07/08 04:51:29;;;;;;;16.65;3.38;;;;;;;;;;5040691;28;20111;-70
2022/07/08 04:53:55;;;;;;;12.65;3.20;;;;;;;;;;5045648;28;20075;-70
2022/07/08 04:56:21;;;;;;;11.90;2.75;;;;;;;;;;5048352;28;20029;-71
2022/07/08 04:58:47;;;;;;;11.75;2.90;;;;;;;;;;5049055;28;20033;-70
2022/07/08 05:01:14;;;;;;;13.13;3.45;;;;;;;;;;5025838;28;20068;-69
2022/07/08 05:03:40;;;;;;;13.38;3.03;;;;;;;;;;5040501;28;20037;-70
2022/07/08 05:06:06;;;;;;;10.45;2.70;;;;;;;;;;5033585;28;20717;-69
2022/07/08 05:08:32;;;;;;;9.70;2.90;;;;;;;;;;5031956;28;20102;-70
2022/07/08 05:10:58;;;;;;;14.43;2.72;;;;;;;;;;5039716;28;20025;-75
2022/07/08 05:13:24;;;;;;;9.73;3.00;;;;;;;;;;5042214;28;20482;-73
2022/07/08 05:15:50;;;;;;;12.88;2.67;;;;;;;;;;5040774;28;20037;-74
2022/07/08 05:18:16;;;;;;;11.95;3.15;;;;;;;;;;5034285;28;20033;-71
2022/07/08 05:20:42;;;;;;;13.77;2.97;;;;;;;;;;5034545;28;20048;-70
2022/07/08 05:23:08;;;;;;;7.68;2.30;;;;;;;;;;5041658;28;20059;-73
2022/07/08 05:25:34;;;;;;;14.20;2.20;;;;;;;;;;5026963;28;20454;-71
2022/07/08 05:28:01;;;;;;;12.90;2.30;;;;;;;;;;5038893;28;20033;-72
2022/07/08 05:30:27;;;;;;;11.85;1.85;;;;;;;;;;5035384;28;20112;-72
2022/07/08 05:32:53;;;;;;;13.88;2.45;;;;;;;;;;5049525;28;20513;-73
2022/07/08 05:35:19;;;;;;;17.38;3.20;;;;;;;;;;5033962;28;20511;-73
2022/07/08 05:37:45;;;;;;;13.15;2.70;;;;;;;;;;5037998;28;20044;-71
2022/07/08 05:40:12;;;;;;;13.60;2.72;;;;;;;;;;5034813;28;20036;-73
2022/07/08 05:42:38;;;;;;;14.82;2.72;;;;;;;;;;5042294;28;20056;-74
2022/07/08 05:45:05;;;;;;;17.30;2.65;;;;;;;;;;5038869;28;20094;-74
2022/07/08 05:47:31;;;;;;;11.95;2.70;;;;;;;;;;5041730;28;20021;-73
2022/07/08 05:49:57;;;;;;;11.75;2.60;;;;;;;;;;5044761;28;20087;-72
2022/07/08 05:52:23;;;;;;;18.38;2.67;;;;;;;;;;5040378;28;20025;-72
2022/07/08 05:54:49;;;;;;;13.25;2.60;;;;;;;;;;5040665;28;20090;-72
2022/07/08 05:57:16;;;;;;;19.80;3.20;;;;;;;;;;5051173;28;20058;-73
2022/07/08 05:59:42;;;;;;;15.27;2.65;;;;;;;;;;5042064;28;20060;-71
2022/07/08 06:02:08;;;;;;;19.30;3.67;;;;;;;;;;5042259;28;20115;-72
2022/07/08 06:04:34;;;;;;;16.00;2.85;;;;;;;;;;5035880;28;20755;-72
2022/07/08 06:07:00;;;;;;;13.05;2.60;;;;;;;;;;5036548;28;20074;-75
2022/07/08 06:09:26;;;;;;;20.83;2.85;;;;;;;;;;5035916;28;20049;-74
2022/07/08 06:11:52;;;;;;;16.27;2.85;;;;;;;;;;5033583;28;20066;-73
2022/07/08 06:14:19;;;;;;;16.30;2.97;;;;;;;;;;5045405;28;20537;-73
2022/07/08 06:16:48;;;;;;;20.05;3.35;;;;;;;;;;5043736;28;20070;-73
2022/07/08 06:19:17;;;;;;;15.70;2.58;;;;;;;;;;5040924;28;20439;-73
2022/07/08 06:21:43;;;;;;;12.73;3.25;;;;;;;;;;5042082;28;20041;-72
2022/07/08 06:24:10;;;;;;;20.42;3.65;;;;;;;;;;5033081;28;20033;-73
2022/07/08 06:26:37;;;;;;;16.23;2.80;;;;;;;;;;5038895;28;20048;-73
2022/07/08 06:29:03;;;;;;;14.10;2.72;;;;;;;;;;5043512;28;20513;-72
2022/07/08 06:31:29;;;;;;;20.50;2.85;;;;;;;;;;5043065;28;20032;-73
2022/07/08 06:33:58;;;;;;;11.85;2.30;;;;;;;;;;5045434;28;20025;-73
2022/07/08 06:36:25;;;;;;;15.20;2.97;;;;;;;;;;5044479;28;20025;-73
2022/07/08 06:38:52;;;;;;;20.83;3.60;;;;;;;;;;5041847;28;20391;-73
2022/07/08 06:41:19;;;;;;;15.88;2.45;;;;;;;;;;5043603;28;20033;-76
2022/07/08 06:43:45;;;;;;;11.63;2.47;;;;;;;;;;5046421;28;20095;-77
2022/07/08 06:46:11;;;;;;;16.95;2.85;;;;;;;;;;5045694;28;20029;-74
2022/07/08 06:48:37;;;;;;;17.40;2.90;;;;;;;;;;5043299;28;20083;-77
2022/07/08 06:51:03;;;;;;;16.38;2.58;;;;;;;;;;5044697;28;20075;-75
2022/07/08 06:54:34;;;;;;;12.82;2.40;;;;;;;;;;5045944;28;20094;-75
2022/07/08 06:56:15;;;;;;;15.45;3.05;;;;;;;;;;5044270;28;20044;-77
2022/07/08 06:58:41;;;;;;;15.68;2.85;;;;;;;;;;5044587;28;20041;-77
2022/07/08 07:01:08;;;;;;;18.60;3.08;;;;;;;;;;5041547;28;20032;-77
2022/07/08 07:03:34;;;;;;;13.10;2.22;;;;;;;;;;5035546;28;20118;-77
2022/07/08 07:06:00;;;;;;;14.15;2.88;;;;;;;;;;5046250;28;20084;-75
2022/07/08 07:08:26;;;;;;;10.45;2.40;;;;;;;;;;5052226;28;20049;-76
2022/07/08 07:10:52;;;;;;;15.15;2.70;;;;;;;;;;5043712;28;20556;-77
2022/07/08 07:13:18;;;;;;;18.60;2.92;;;;;;;;;;5041624;28;20156;-76
2022/07/08 07:15:44;;;;;;;17.77;3.58;;;;;;;;;;5040523;28;20156;-77
2022/07/08 07:18:10;;;;;;;20.85;2.92;;;;;;;;;;5041595;28;20402;-73
2022/07/08 07:20:36;;;;;;;13.23;3.00;;;;;;;;;;5039254;28;20035;-75
2022/07/08 07:23:02;;;;;;;13.30;2.45;;;;;;;;;;5046463;28;20475;-75
2022/07/08 07:25:28;;;;;;;15.10;2.65;;;;;;;;;;5033621;28;20036;-75
2022/07/08 07:27:54;;;;;;;13.63;2.00;;;;;;;;;;5051528;28;20029;-77
2022/07/08 07:30:24;;;;;;;13.23;2.65;;;;;;;;;;5043353;28;20117;-75
2022/07/08 07:32:50;;;;;;;14.02;2.55;;;;;;;;;;5037016;28;20037;-75
2022/07/08 07:35:18;;;;;;;8.52;2.08;;;;;;;;;;5031471;28;20083;-75
2022/07/08 07:37:44;;;;;;;14.50;3.10;;;;;;;;;;5043628;28;20116;-75
2022/07/08 07:40:10;;;;;;;14.63;2.67;;;;;;;;;;5036490;28;20025;-77
2022/07/08 07:42:36;;;;;;;13.52;2.63;;;;;;;;;;5047798;28;20036;-77
2022/07/08 07:45:03;;;;;;;14.35;2.75;;;;;;;;;;5047408;28;20487;-77
2022/07/08 07:47:30;;;;;;;11.45;2.17;;;;;;;;;;5038475;28;20041;-76
2022/07/08 07:49:56;;;;;;;15.82;2.42;;;;;;;;;;5044386;28;20065;-76
2022/07/08 07:52:22;;;;;;;10.25;2.70;;;;;;;;;;5046929;28;20029;-76
2022/07/08 07:54:49;;;;;;;11.77;2.58;;;;;;;;;;5057995;28;20036;-76
2022/07/08 07:57:15;;;;;;;16.38;2.45;;;;;;;;;;5034105;28;20471;-75
2022/07/08 07:59:41;;;;;;;12.38;2.17;;;;;;;;;;5033134;28;21311;-76
2022/07/08 08:02:07;;;;;;;17.33;2.42;;;;;;;;;;5051769;28;20037;-76
2022/07/08 08:04:33;;;;;;;11.95;2.35;;;;;;;;;;5051912;28;20033;-76
2022/07/08 08:06:59;;;;;;;8.85;2.60;;;;;;;;;;5047335;28;20171;-75
2022/07/08 08:09:25;;;;;;;12.80;2.28;;;;;;;;;;5041367;28;20393;-75
2022/07/08 08:11:51;;;;;;;10.93;2.60;;;;;;;;;;5046189;28;20029;-77
2022/07/08 08:14:17;;;;;;;14.82;3.10;;;;;;;;;;5050679;28;20108;-76
2022/07/08 08:16:43;;;;;;;15.10;2.78;;;;;;;;;;5051696;28;20029;-75
2022/07/08 08:19:09;;;;;;;11.32;2.40;;;;;;;;;;5048389;28;20036;-75
2022/07/08 08:21:36;;;;;;;14.38;2.30;;;;;;;;;;5043890;28;20033;-77
2022/07/08 08:24:03;;;;;;;11.70;2.38;;;;;;;;;;5051888;28;20040;-76
2022/07/08 08:26:29;;;;;;;10.10;2.22;;;;;;;;;;5051522;28;20025;-77
2022/07/08 08:28:55;;;;;;;10.38;2.30;;;;;;;;;;5034123;28;20040;-77
2022/07/08 08:31:21;;;;;;;10.88;2.50;;;;;;;;;;5038010;28;20030;-76
2022/07/08 08:33:47;;;;;;;11.20;2.53;;;;;;;;;;5037467;28;20393;-77
2022/07/08 08:36:13;;;;;;;13.25;2.53;;;;;;;;;;5050231;28;20033;-76
2022/07/08 08:38:39;;;;;;;12.40;2.90;;;;;;;;;;5050889;28;20074;-76
2022/07/08 08:41:06;;;;;;;13.27;2.75;;;;;;;;;;5050831;28;20110;-75
2022/07/08 08:43:33;;;;;;;8.68;2.42;;;;;;;;;;5048898;28;20045;-74
2022/07/08 08:45:59;;;;;;;12.82;2.80;;;;;;;;;;5035537;28;20120;-75
2022/07/08 08:48:26;;;;;;;8.20;2.05;;;;;;;;;;5042837;28;20057;-77
2022/07/08 08:50:56;;;;;;;8.50;1.83;;;;;;;;;;5050369;28;20076;-76
2022/07/08 08:53:27;;;;;;;9.88;1.92;;;;;;;;;;5042889;28;20092;-76
2022/07/08 08:55:53;;;;;;;7.78;1.98;;;;;;;;;;5041946;28;20096;-77
2022/07/08 08:58:21;;;;;;;10.55;2.60;;;;;;;;;;5041220;28;20095;-76
2022/07/08 09:00:47;;;;;;;10.50;1.98;;;;;;;;;;5036521;28;20558;-76
2022/07/08 09:03:13;;;;;;;11.45;2.40;;;;;;;;;;5044830;28;20112;-74
2022/07/08 09:05:39;;;;;;;8.75;2.08;;;;;;;;;;5045405;28;20044;-74
2022/07/08 09:08:05;;;;;;;7.85;2.00;;;;;;;;;;5044945;28;20357;-74
2022/07/08 09:10:31;;;;;;;8.90;1.77;;;;;;;;;;5049015;28;20105;-76
2022/07/08 09:13:00;;;;;;;7.82;2.10;;;;;;;;;;5046223;28;20445;-76
2022/07/08 09:15:30;;;;;;;13.65;2.70;;;;;;;;;;5042319;28;20136;-77
2022/07/08 09:17:56;;;;;;;9.00;2.20;;;;;;;;;;5043891;28;20032;-77
2022/07/08 09:20:22;;;;;;;9.27;2.00;;;;;;;;;;5044126;28;20060;-76
2022/07/08 09:22:48;;;;;;;7.20;1.65;;;;;;;;;;5061827;28;20028;-79
2022/07/08 09:25:15;;;;;;;12.68;2.15;;;;;;;;;;5044068;28;20063;-77
2022/07/08 09:27:41;;;;;;;9.18;2.10;;;;;;;;;;5046045;28;20398;-77
2022/07/08 09:30:08;;;;;;;6.55;1.90;;;;;;;;;;5033453;28;20483;-76
2022/07/08 09:32:35;;;;;;;10.10;2.03;;;;;;;;;;5031222;28;20056;-76
2022/07/08 09:35:01;;;;;;;6.80;1.65;;;;;;;;;;5031690;28;20436;-75
2022/07/08 09:37:27;;;;;;;11.02;2.03;;;;;;;;;;5050980;28;20040;-76
2022/07/08 09:39:54;;;;;;;8.48;2.25;;;;;;;;;;5048447;28;20055;-76
2022/07/08 09:42:21;;;;;;;8.20;2.53;;;;;;;;;;5048023;28;20029;-75
2022/07/08 09:44:51;;;;;;;11.77;1.90;;;;;;;;;;5041137;28;20048;-76
2022/07/08 09:47:17;;;;;;;6.50;2.08;;;;;;;;;;5049412;28;20116;-77
2022/07/08 09:49:45;;;;;;;5.85;2.22;;;;;;;;;;5050531;28;20503;-78
2022/07/08 09:52:12;;;;;;;8.48;1.88;;;;;;;;;;5041171;28;20100;-77
2022/07/08 09:54:38;;;;;;;7.38;1.92;;;;;;;;;;5042249;28;20040;-77
2022/07/08 09:57:05;;;;;;;8.15;1.80;;;;;;;;;;5039275;28;20041;-77
2022/07/08 09:59:32;;;;;;;6.93;1.70;;;;;;;;;;5040721;28;20118;-76
2022/07/08 10:01:58;;;;;;;6.72;2.10;;;;;;;;;;5048342;28;20037;-76
2022/07/08 10:04:24;;;;;;;7.72;2.17;;;;;;;;;;5035988;28;20475;-76
2022/07/08 10:06:52;;;;;;;11.25;2.35;;;;;;;;;;5031969;28;20033;-77
2022/07/08 10:09:19;;;;;;;16.05;2.35;;;;;;;;;;5034665;28;20029;-76
2022/07/08 10:11:46;;;;;;;15.35;2.67;;;;;;;;;;5047242;28;20017;-77
2022/07/08 10:14:12;;;;;;;9.55;2.25;;;;;;;;;;5040319;28;20033;-77
2022/07/08 10:16:40;;;;;;;7.95;1.83;;;;;;;;;;5062444;28;20036;-76
2022/07/08 10:19:08;;;;;;;8.95;1.98;;;;;;;;;;5044313;28;20037;-77
2022/07/08 10:21:35;;;;;;;11.00;1.98;;;;;;;;;;5041316;28;20036;-77
2022/07/08 10:24:02;;;;;;;7.22;2.00;;;;;;;;;;5043456;28;20028;-76
2022/07/08 10:26:29;;;;;;;6.72;2.20;;;;;;;;;;5046685;28;20036;-77
2022/07/08 10:29:02;;;;;;;6.78;1.98;;;;;;;;;;5047130;28;20024;-77
2022/07/08 10:31:29;;;;;;;6.03;1.80;;;;;;;;;;5043658;28;20048;-77
2022/07/08 10:34:02;;;;;;;8.05;1.95;;;;;;;;;;5042768;28;20083;-77
2022/07/08 10:36:28;;;;;;;7.43;1.90;;;;;;;;;;5047084;28;20036;-76
2022/07/08 10:38:57;;;;;;;6.85;2.22;;;;;;;;;;5045357;28;20050;-76
2022/07/08 10:41:26;;;;;;;12.25;2.63;;;;;;;;;;5032556;28;20045;-77
2022/07/08 10:43:58;;;;;;;9.40;2.35;;;;;;;;;;5044194;28;20039;-76
2022/07/08 10:46:25;;;;;;;6.25;2.13;;;;;;;;;;5041755;28;20466;-77
2022/07/08 10:48:53;;;;;;;8.63;1.67;;;;;;;;;;5043012;28;20033;-77
2022/07/08 10:51:25;;;;;;;7.40;1.80;;;;;;;;;;5043520;28;20037;-76
2022/07/08 10:53:51;;;;;;;7.10;1.75;;;;;;;;;;5039490;28;20025;-75
2022/07/08 10:56:36;;;;;;;4.28;1.55;;;;;;;;;;5040165;28;20040;-76
2022/07/08 10:59:18;;;;;;;11.20;1.70;;;;;;;;;;5063174;28;20040;-76
2022/07/08 11:01:55;;;;;;;4.45;1.50;;;;;;;;;;5045577;28;20032;-77
2022/07/08 11:04:28;;;;;;;4.55;1.67;;;;;;;;;;5039690;28;20231;-75
2022/07/08 11:06:55;;;;;;;5.28;1.63;;;;;;;;;;5044045;28;20029;-77
2022/07/08 11:09:23;;;;;;;6.15;1.20;;;;;;;;;;5045553;28;20033;-76
2022/07/08 11:11:49;;;;;;;3.65;1.10;;;;;;;;;;5049188;28;20155;-76
2022/07/08 11:14:16;;;;;;;6.95;1.50;;;;;;;;;;5045046;28;20033;-75
2022/07/08 11:16:42;;;;;;;6.25;2.10;;;;;;;;;;5043480;28;20079;-76
2022/07/08 11:19:08;;;;;;;8.30;1.83;;;;;;;;;;5040305;28;20043;-75
2022/07/08 11:21:34;;;;;;;6.90;1.23;;;;;;;;;;5048952;28;20040;-76
2022/07/08 11:24:00;;;;;;;6.15;1.65;;;;;;;;;;5033046;28;20037;-75
2022/07/08 11:26:26;;;;;;;5.60;1.25;;;;;;;;;;5043420;28;20030;-77
2022/07/08 11:28:53;;;;;;;6.88;1.42;;;;;;;;;;5038421;28;20044;-76
2022/07/08 11:31:19;;;;;;;5.97;2.10;;;;;;;;;;5032683;28;20040;-75
2022/07/08 11:33:45;;;;;;;7.95;1.50;;;;;;;;;;5034921;28;20119;-79
2022/07/08 11:36:16;;;;;;;9.90;1.67;;;;;;;;;;5042756;28;20122;-77
2022/07/08 11:38:42;;;;;;;;;;;;;;;;;;5046144;28;20272;-76
2022/07/08 11:41:08;;;;;;;5.22;1.35;;;;;;;;;;5053770;28;20293;-75
2022/07/08 11:43:34;;;;;;;9.18;1.40;;;;;;;;;;5052279;28;20025;-76
2022/07/08 11:46:00;;;;;;;7.38;1.65;;;;;;;;;;5051381;28;20018;-75
2022/07/08 11:48:36;;;;;;;8.63;1.70;;;;;;;;;;5054933;28;20029;-76
2022/07/08 11:51:02;;;;;;;4.50;1.60;;;;;;;;;;5033341;28;20050;-75
2022/07/08 11:53:28;;;;;;;9.70;1.70;;;;;;;;;;5046215;28;20029;-75
2022/07/08 11:55:54;;;;;;;8.00;1.40;;;;;;;;;;5050850;28;20107;-75
2022/07/08 11:58:24;;;;;;;6.82;1.17;;;;;;;;;;5053261;28;20117;-76
2022/07/08 12:00:53;;;;;;;5.85;2.30;;;;;;;;;;5055443;28;20028;-75
2022/07/08 12:03:19;;;;;;;5.30;1.50;;;;;;;;;;5053250;28;20166;-76
2022/07/08 12:05:47;;;;;;;7.90;1.42;;;;;;;;;;5055186;28;20079;-76
2022/07/08 12:08:13;;;;;;;6.53;1.30;;;;;;;;;;5054017;28;20089;-74
2022/07/08 12:10:39;;;;;;;5.82;1.55;;;;;;;;;;5055419;28;20071;-76
2022/07/08 12:13:05;;;;;;;5.95;1.38;;;;;;;;;;5053984;28;20059;-77
2022/07/08 12:15:37;;;;;;;4.13;1.40;;;;;;;;;;5037303;28;20040;-74
2022/07/08 12:18:06;;;;;;;5.93;1.90;;;;;;;;;;5056428;28;20060;-76
2022/07/08 12:20:32;;;;;;;5.35;1.58;;;;;;;;;;5053569;28;20033;-73
2022/07/08 12:22:59;;;;;;;7.35;1.63;;;;;;;;;;5044578;28;20490;-76
2022/07/08 12:25:25;;;;;;;7.47;1.42;;;;;;;;;;5033813;28;20044;-76
2022/07/08 12:27:55;;;;;;;6.20;1.60;;;;;;;;;;5043379;28;20028;-76
2022/07/08 12:30:25;;;;;;;9.05;1.70;;;;;;;;;;5050524;28;20029;-75
2022/07/08 12:32:51;;;;;;;10.27;1.80;;;;;;;;;;5047303;28;20021;-77
2022/07/08 12:35:17;;;;;;;5.30;1.70;;;;;;;;;;5038262;28;20052;-76
2022/07/08 12:37:43;;;;;;;6.22;2.03;;;;;;;;;;5032445;28;20033;-76
2022/07/08 12:40:32;;;;;;;9.50;2.17;;;;;;;;;;5043998;28;20122;-75
2022/07/08 12:43:02;;;;;;;8.93;2.00;;;;;;;;;;5051295;28;20037;-76
2022/07/08 12:45:29;;;;;;;6.90;1.98;;;;;;;;;;5049781;28;20033;-77
2022/07/08 12:47:55;;;;;;;9.48;2.00;;;;;;;;;;5046302;28;20191;-76
2022/07/08 12:50:21;;;;;;;12.25;2.38;;;;;;;;;;5043548;28;20049;-76
2022/07/08 12:52:47;;;;;;;11.77;2.70;;;;;;;;;;5046571;28;20064;-75
2022/07/08 12:55:13;;;;;;;12.98;2.40;;;;;;;;;;5043703;28;20108;-75
2022/07/08 12:57:39;;;;;;;6.70;1.92;;;;;;;;;;5037128;28;20040;-76
2022/07/08 13:00:05;;;;;;;9.05;2.03;;;;;;;;;;5044788;28;20505;-75
2022/07/08 13:02:31;;;;;;;9.45;2.33;;;;;;;;;;5044303;28;20041;-75
2022/07/08 13:04:57;;;;;;;10.23;2.78;;;;;;;;;;5039962;28;20395;-76
2022/07/08 13:07:24;;;;;;;7.25;2.03;;;;;;;;;;5033495;28;20029;-76
2022/07/08 13:09:50;;;;;;;12.75;2.75;;;;;;;;;;5051790;28;20026;-76
2022/07/08 13:12:16;;;;;;;10.60;2.33;;;;;;;;;;5045567;28;20071;-75
2022/07/08 13:14:42;;;;;;;8.50;2.67;;;;;;;;;;5042929;28;20061;-78
2022/07/08 13:17:08;;;;;;;6.97;2.20;;;;;;;;;;5036315;28;20034;-77
2022/07/08 13:19:34;;;;;;;7.18;1.92;;;;;;;;;;5050784;28;20032;-76
2022/07/08 13:22:01;;;;;;;6.93;2.38;;;;;;;;;;5029146;28;20141;-77
2022/07/08 13:24:27;;;;;;;10.85;2.78;;;;;;;;;;5037944;28;20538;-77
2022/07/08 13:26:54;;;;;;;13.48;2.80;;;;;;;;;;5048955;28;20029;-76
2022/07/08 13:29:20;;;;;;;8.02;2.30;;;;;;;;;;5044085;28;20067;-76
2022/07/08 13:31:46;;;;;;;13.02;2.95;;;;;;;;;;5031537;28;20044;-76
2022/07/08 13:34:12;;;;;;;9.00;2.28;;;;;;;;;;5032212;28;20454;-76
2022/07/08 13:36:38;;;;;;;11.20;2.53;;;;;;;;;;5050661;28;20033;-76
2022/07/08 13:39:04;;;;;;;11.20;2.47;;;;;;;;;;5052212;28;20029;-76
2022/07/08 13:41:30;;;;;;;7.60;2.63;;;;;;;;;;5050785;28;20063;-79
2022/07/08 13:44:00;;;;;;;9.35;2.42;;;;;;;;;;5038389;28;20033;-77
2022/07/08 13:46:27;;;;;;;13.18;2.42;;;;;;;;;;5033227;28;20067;-77
2022/07/08 13:48:54;;;;;;;11.95;2.60;;;;;;;;;;5043952;28;20060;-77
2022/07/08 13:51:20;;;;;;;9.30;2.38;;;;;;;;;;5051045;28;20045;-77
2022/07/08 13:53:46;;;;;;;9.32;2.72;;;;;;;;;;5053469;28;20025;-75
2022/07/08 13:56:12;;;;;;;11.13;2.40;;;;;;;;;;5042243;28;20033;-76
2022/07/08 13:58:38;;;;;;;9.07;2.22;;;;;;;;;;5038192;28;20041;-76
2022/07/08 14:01:04;;;;;;;15.32;2.88;;;;;;;;;;5031488;28;20036;-75
2022/07/08 14:03:30;;;;;;;10.55;2.70;;;;;;;;;;5030383;28;20033;-74
2022/07/08 14:05:56;;;;;;;7.15;2.45;;;;;;;;;;5035236;28;20450;-73
2022/07/08 14:08:22;;;;;;;8.70;2.25;;;;;;;;;;5039611;28;20547;-74
2022/07/08 14:10:49;;;;;;;7.25;2.45;;;;;;;;;;5031651;28;20021;-75
2022/07/08 14:13:15;;;;;;;13.98;2.90;;;;;;;;;;5033574;28;20514;-73
2022/07/08 14:15:41;;;;;;;11.60;2.67;;;;;;;;;;5044516;28;20059;-74
2022/07/08 14:18:07;;;;;;;8.40;2.10;;;;;;;;;;5047298;28;20166;-75
2022/07/08 14:20:33;;;;;;;12.43;2.67;;;;;;;;;;5049677;28;20059;-74
2022/07/08 14:22:59;;;;;;;11.88;2.85;;;;;;;;;;5049166;28;20461;-75
2022/07/08 14:25:25;;;;;;;8.48;2.38;;;;;;;;;;5048066;28;20048;-75
2022/07/08 14:27:52;;;;;;;8.40;2.58;;;;;;;;;;5014163;28;20176;-75
2022/07/08 14:30:18;;;;;;;7.72;2.75;;;;;;;;;;5029422;28;20464;-72
2022/07/08 14:32:44;;;;;;;9.77;2.40;;;;;;;;;;5030853;28;20029;-75
2022/07/08 14:35:10;;;;;;;10.90;2.28;;;;;;;;;;5041626;28;20063;-74